sensor_id;sensor_type;location;lat;lon;timestamp;pressure;altitude;pressure_sealevel;temperature;humidity
12759;BME280;20944;47.048;15.390;2022-07-06T00:02:12;97783.88;;;19.40;82.66
12759;BME280;20944;47.048;15.390;2022-07-06T00:04:40;97752.25;;;19.22;82.87
12759;BME280;20944;47.048;15.390;2022-07-06T00:07:08;97781.50;;;19.36;81.91
12759;BME280;20944;47.048;15.390;2022-07-06T00:09:36;97771.16;;;19.31;82.63
12759;BME280;20944;47.048;15.390;2022-07-06T00:12:05;97788.41;;;19.24;83.16
12759;BME280;20944;47.048;15.390;2022-07-06T00:14:33;97765.78;;;19.03;84.46
12759;BME280;20944;47.048;15.390;2022-07-06T00:17:01;97756.34;;;18.83;85.33
12759;BME280;20944;47.048;15.390;2022-07-06T00:19:31;97773.63;;;18.90;87.27
12759;BME280;20944;47.048;15.390;2022-07-06T00:21:59;97783.38;;;18.90;88.58
12759;BME280;20944;47.048;15.390;2022-07-06T00:24:28;97785.69;;;18.96;89.05
12759;BME280;20944;47.048;15.390;2022-07-06T00:26:56;97794.50;;;18.96;87.66
12759;BME280;20944;47.048;15.390;2022-07-06T00:29:24;97790.03;;;18.97;86.40
12759;BME280;20944;47.048;15.390;2022-07-06T00:31:52;97791.00;;;18.96;86.13
12759;BME280;20944;47.048;15.390;2022-07-06T00:34:21;97788.19;;;18.83;86.07
12759;BME280;20944;47.048;15.390;2022-07-06T00:36:50;97773.75;;;18.73;85.95
12759;BME280;20944;47.048;15.390;2022-07-06T00:39:19;97779.56;;;18.79;84.61
12759;BME280;20944;47.048;15.390;2022-07-06T00:41:48;97780.00;;;18.72;85.35
12759;BME280;20944;47.048;15.390;2022-07-06T00:44:16;97740.72;;;18.47;85.49
12759;BME280;20944;47.048;15.390;2022-07-06T00:46:45;97801.00;;;18.60;87.29
12759;BME280;20944;47.048;15.390;2022-07-06T00:49:13;97784.88;;;18.48;89.25
12759;BME280;20944;47.048;15.390;2022-07-06T00:51:56;97760.69;;;18.38;90.22
12759;BME280;20944;47.048;15.390;2022-07-06T00:54:26;97797.09;;;18.66;90.19
12759;BME280;20944;47.048;15.390;2022-07-06T00:56:56;97798.41;;;18.59;87.90
12759;BME280;20944;47.048;15.390;2022-07-06T00:59:27;97807.00;;;18.48;89.71
12759;BME280;20944;47.048;15.390;2022-07-06T01:01:55;97789.97;;;18.37;90.98
12759;BME280;20944;47.048;15.390;2022-07-06T01:04:23;97779.50;;;18.33;90.98
12759;BME280;20944;47.048;15.390;2022-07-06T01:06:52;97807.66;;;18.52;90.19
12759;BME280;20944;47.048;15.390;2022-07-06T01:09:22;97799.78;;;18.50;90.45
12759;BME280;20944;47.048;15.390;2022-07-06T01:11:51;97797.59;;;18.43;91.11
12759;BME280;20944;47.048;15.390;2022-07-06T01:14:20;97792.34;;;18.41;91.77
12759;BME280;20944;47.048;15.390;2022-07-06T01:16:48;97798.34;;;18.45;90.71
12759;BME280;20944;47.048;15.390;2022-07-06T01:19:17;97802.91;;;18.43;90.69
12759;BME280;20944;47.048;15.390;2022-07-06T01:21:46;97794.34;;;18.38;91.82
12759;BME280;20944;47.048;15.390;2022-07-06T01:24:15;97792.88;;;18.32;92.35
12759;BME280;20944;47.048;15.390;2022-07-06T01:26:43;97785.06;;;18.29;91.97
12759;BME280;20944;47.048;15.390;2022-07-06T01:29:12;97797.66;;;18.41;91.58
12759;BME280;20944;47.048;15.390;2022-07-06T01:31:46;97345.06;;;15.63;92.88
12759;BME280;20944;47.048;15.390;2022-07-06T01:34:16;97798.09;;;18.33;92.88
12759;BME280;20944;47.048;15.390;2022-07-06T01:36:46;97799.88;;;18.33;92.89
12759;BME280;20944;47.048;15.390;2022-07-06T01:39:15;97804.44;;;18.31;91.86
12759;BME280;20944;47.048;15.390;2022-07-06T01:41:43;97804.03;;;18.23;91.54
12759;BME280;20944;47.048;15.390;2022-07-06T01:44:12;97804.34;;;18.01;92.78
12759;BME280;20944;47.048;15.390;2022-07-06T01:46:40;97805.44;;;17.97;95.16
12759;BME280;20944;47.048;15.390;2022-07-06T01:49:08;97805.03;;;18.04;93.98
12759;BME280;20944;47.048;15.390;2022-07-06T01:51:37;97724.50;;;17.41;92.35
12759;BME280;20944;47.048;15.390;2022-07-06T01:54:06;97813.91;;;17.88;94.48
12759;BME280;20944;47.048;15.390;2022-07-06T01:56:34;97807.03;;;17.84;93.82
12759;BME280;20944;47.048;15.390;2022-07-06T01:59:03;97802.13;;;17.60;95.09
12759;BME280;20944;47.048;15.390;2022-07-06T02:01:31;97808.59;;;17.70;96.30
12759;BME280;20944;47.048;15.390;2022-07-06T02:04:00;97809.06;;;17.78;95.15
12759;BME280;20944;47.048;15.390;2022-07-06T02:06:28;97826.25;;;17.71;96.31
12759;BME280;20944;47.048;15.390;2022-07-06T02:08:56;97835.00;;;17.73;97.89
12759;BME280;20944;47.048;15.390;2022-07-06T02:11:26;97833.81;;;17.79;98.96
12759;BME280;20944;47.048;15.390;2022-07-06T02:13:55;97722.03;;;17.05;96.61
12759;BME280;20944;47.048;15.390;2022-07-06T02:16:23;97824.75;;;17.66;98.25
12759;BME280;20944;47.048;15.390;2022-07-06T02:18:51;97824.69;;;17.67;99.97
12759;BME280;20944;47.048;15.390;2022-07-06T02:21:19;97807.31;;;17.62;100.00
12759;BME280;20944;47.048;15.390;2022-07-06T02:23:48;97837.47;;;17.76;100.00
12759;BME280;20944;47.048;15.390;2022-07-06T02:26:16;97837.31;;;17.79;98.87
12759;BME280;20944;47.048;15.390;2022-07-06T02:28:46;97744.06;;;17.22;98.71
12759;BME280;20944;47.048;15.390;2022-07-06T02:31:14;97838.50;;;17.74;98.54
12759;BME280;20944;47.048;15.390;2022-07-06T02:33:43;97820.81;;;17.57;99.79
12759;BME280;20944;47.048;15.390;2022-07-06T02:36:11;97835.00;;;17.73;98.60
12759;BME280;20944;47.048;15.390;2022-07-06T02:38:39;97828.97;;;17.70;99.83
12759;BME280;20944;47.048;15.390;2022-07-06T02:41:08;97827.06;;;17.73;98.27
12759;BME280;20944;47.048;15.390;2022-07-06T02:43:37;97835.00;;;17.56;99.04
12759;BME280;20944;47.048;15.390;2022-07-06T02:46:07;97813.38;;;17.31;100.00
12759;BME280;20944;47.048;15.390;2022-07-06T02:48:35;97826.97;;;17.40;100.00
12759;BME280;20944;47.048;15.390;2022-07-06T02:51:04;97818.25;;;17.38;100.00
12759;BME280;20944;47.048;15.390;2022-07-06T02:53:32;97815.84;;;17.34;100.00
12759;BME280;20944;47.048;15.390;2022-07-06T02:56:00;97828.47;;;17.46;100.00
12759;BME280;20944;47.048;15.390;2022-07-06T02:58:28;97828.94;;;17.54;100.00
12759;BME280;20944;47.048;15.390;2022-07-06T03:00:57;97784.00;;;17.35;100.00
12759;BME280;20944;47.048;15.390;2022-07-06T03:03:27;97833.81;;;17.62;100.00
12759;BME280;20944;47.048;15.390;2022-07-06T03:05:55;97838.00;;;17.66;100.00
12759;BME280;20944;47.048;15.390;2022-07-06T03:08:23;97741.25;;;17.08;100.00
12759;BME280;20944;47.048;15.390;2022-07-06T03:10:52;97829.53;;;17.59;100.00
12759;BME280;20944;47.048;15.390;2022-07-06T03:13:20;97834.47;;;17.49;100.00
12759;BME280;20944;47.048;15.390;2022-07-06T03:15:48;97833.53;;;17.50;100.00
12759;BME280;20944;47.048;15.390;2022-07-06T03:18:17;97834.56;;;17.48;100.00
12759;BME280;20944;47.048;15.390;2022-07-06T03:20:47;97796.63;;;17.30;100.00
12759;BME280;20944;47.048;15.390;2022-07-06T03:23:15;97829.94;;;17.51;100.00
12759;BME280;20944;47.048;15.390;2022-07-06T03:25:44;97801.31;;;17.25;100.00
12759;BME280;20944;47.048;15.390;2022-07-06T03:28:12;97828.72;;;17.41;100.00
12759;BME280;20944;47.048;15.390;2022-07-06T03:30:40;97825.91;;;17.44;100.00
12759;BME280;20944;47.048;15.390;2022-07-06T03:33:08;97824.63;;;17.51;100.00
12759;BME280;20944;47.048;15.390;2022-07-06T03:35:37;97824.81;;;17.48;100.00
12759;BME280;20944;47.048;15.390;2022-07-06T03:38:06;97831.72;;;17.51;100.00
12759;BME280;20944;47.048;15.390;2022-07-06T03:40:35;97836.56;;;17.60;100.00
12759;BME280;20944;47.048;15.390;2022-07-06T03:43:03;97825.03;;;17.61;100.00
12759;BME280;20944;47.048;15.390;2022-07-06T03:45:31;97839.97;;;17.62;100.00
12759;BME280;20944;47.048;15.390;2022-07-06T03:47:59;97834.59;;;17.64;100.00
12759;BME280;20944;47.048;15.390;2022-07-06T03:50:28;97832.19;;;17.76;100.00
12759;BME280;20944;47.048;15.390;2022-07-06T03:52:56;97825.97;;;17.93;100.00
12759;BME280;20944;47.048;15.390;2022-07-06T03:55:26;97766.66;;;17.78;100.00
12759;BME280;20944;47.048;15.390;2022-07-06T03:57:54;97819.41;;;18.32;100.00
12759;BME280;20944;47.048;15.390;2022-07-06T04:00:28;97809.91;;;18.44;100.00
12759;BME280;20944;47.048;15.390;2022-07-06T04:02:56;97828.06;;;18.67;100.00
12759;BME280;20944;47.048;15.390;2022-07-06T04:05:24;97827.53;;;18.76;99.09
12759;BME280;20944;47.048;15.390;2022-07-06T04:07:53;97823.84;;;18.79;98.94
12759;BME280;20944;47.048;15.390;2022-07-06T04:10:21;97821.16;;;18.95;97.67
12759;BME280;20944;47.048;15.390;2022-07-06T04:12:51;97827.38;;;19.09;96.56
12759;BME280;20944;47.048;15.390;2022-07-06T04:15:19;97792.44;;;19.01;95.39
12759;BME280;20944;47.048;15.390;2022-07-06T04:17:48;97821.75;;;19.30;93.88
12759;BME280;20944;47.048;15.390;2022-07-06T04:20:24;97768.78;;;18.97;92.39
12759;BME280;20944;47.048;15.390;2022-07-06T04:22:52;97826.47;;;19.25;91.87
12759;BME280;20944;47.048;15.390;2022-07-06T04:25:21;97791.19;;;18.93;92.09
12759;BME280;20944;47.048;15.390;2022-07-06T04:27:50;97812.47;;;19.07;92.01
12759;BME280;20944;47.048;15.390;2022-07-06T04:30:19;97827.38;;;19.09;92.41
12759;BME280;20944;47.048;15.390;2022-07-06T04:32:48;97823.94;;;19.07;93.07
12759;BME280;20944;47.048;15.390;2022-07-06T04:35:16;97781.94;;;18.84;94.48
12759;BME280;20944;47.048;15.390;2022-07-06T04:37:44;97793.00;;;18.92;94.27
12759;BME280;20944;47.048;15.390;2022-07-06T04:40:14;97816.16;;;19.04;93.81
12759;BME280;20944;47.048;15.390;2022-07-06T04:42:44;97811.88;;;19.02;91.26
12759;BME280;20944;47.048;15.390;2022-07-06T04:45:14;97778.69;;;18.79;91.69
12759;BME280;20944;47.048;15.390;2022-07-06T04:47:42;97825.84;;;19.05;91.58
12759;BME280;20944;47.048;15.390;2022-07-06T04:50:12;97825.84;;;19.05;90.97
12759;BME280;20944;47.048;15.390;2022-07-06T04:52:40;97811.28;;;18.97;89.62
12759;BME280;20944;47.048;15.390;2022-07-06T04:55:08;97827.06;;;19.00;89.77
12759;BME280;20944;47.048;15.390;2022-07-06T04:57:37;97815.66;;;18.98;90.50
12759;BME280;20944;47.048;15.390;2022-07-06T05:00:06;97832.06;;;19.20;89.69
12759;BME280;20944;47.048;15.390;2022-07-06T05:02:36;97824.31;;;19.46;89.47
12759;BME280;20944;47.048;15.390;2022-07-06T05:05:04;97829.41;;;19.79;88.44
12759;BME280;20944;47.048;15.390;2022-07-06T05:07:33;97830.38;;;20.06;86.43
12759;BME280;20944;47.048;15.390;2022-07-06T05:10:07;97826.03;;;20.32;83.16
12759;BME280;20944;47.048;15.390;2022-07-06T05:12:36;97807.41;;;20.46;81.67
12759;BME280;20944;47.048;15.390;2022-07-06T05:15:05;97810.16;;;20.72;79.28
12759;BME280;20944;47.048;15.390;2022-07-06T05:17:34;97821.31;;;20.91;77.99
12759;BME280;20944;47.048;15.390;2022-07-06T05:20:05;97833.44;;;20.83;77.17
12759;BME280;20944;47.048;15.390;2022-07-06T05:22:33;97833.84;;;20.77;77.91
12759;BME280;20944;47.048;15.390;2022-07-06T05:25:08;97836.50;;;20.77;75.73
12759;BME280;20944;47.048;15.390;2022-07-06T05:27:36;97751.59;;;20.45;75.54
12759;BME280;20944;47.048;15.390;2022-07-06T05:30:05;97830.63;;;21.11;74.94
12759;BME280;20944;47.048;15.390;2022-07-06T05:32:34;97829.50;;;21.28;74.40
12759;BME280;20944;47.048;15.390;2022-07-06T05:35:05;97840.88;;;21.44;72.47
12759;BME280;20944;47.048;15.390;2022-07-06T05:37:53;97838.72;;;21.49;71.15
12759;BME280;20944;47.048;15.390;2022-07-06T05:40:21;97823.06;;;21.45;70.09
12759;BME280;20944;47.048;15.390;2022-07-06T05:42:50;97835.31;;;21.73;70.19
12759;BME280;20944;47.048;15.390;2022-07-06T05:45:18;97825.31;;;21.89;68.57
12759;BME280;20944;47.048;15.390;2022-07-06T05:47:46;97830.50;;;22.03;68.69
12759;BME280;20944;47.048;15.390;2022-07-06T05:50:33;97826.25;;;22.01;68.47
12759;BME280;20944;47.048;15.390;2022-07-06T05:53:03;97827.97;;;22.02;68.74
12759;BME280;20944;47.048;15.390;2022-07-06T05:55:43;97824.88;;;22.21;68.47
12759;BME280;20944;47.048;15.390;2022-07-06T05:58:11;97814.91;;;22.23;69.40
12759;BME280;20944;47.048;15.390;2022-07-06T06:00:39;97822.56;;;22.40;69.06
12759;BME280;20944;47.048;15.390;2022-07-06T06:03:08;97826.94;;;22.41;67.96
12759;BME280;20944;47.048;15.390;2022-07-06T06:05:38;97819.59;;;22.32;66.65
12759;BME280;20944;47.048;15.390;2022-07-06T06:08:06;97836.44;;;22.45;66.94
12759;BME280;20944;47.048;15.390;2022-07-06T06:10:35;97834.38;;;22.49;68.38
12759;BME280;20944;47.048;15.390;2022-07-06T06:13:03;97827.69;;;22.67;68.68
12759;BME280;20944;47.048;15.390;2022-07-06T06:15:31;97829.34;;;22.81;68.81
12759;BME280;20944;47.048;15.390;2022-07-06T06:18:00;97828.78;;;23.01;67.71
12759;BME280;20944;47.048;15.390;2022-07-06T06:20:28;97823.94;;;23.18;65.79
12759;BME280;20944;47.048;15.390;2022-07-06T06:22:58;97828.88;;;23.35;65.93
12759;BME280;20944;47.048;15.390;2022-07-06T06:25:29;97815.50;;;23.35;65.94
12759;BME280;20944;47.048;15.390;2022-07-06T06:27:58;97828.06;;;23.46;65.91
12759;BME280;20944;47.048;15.390;2022-07-06T06:30:26;97831.78;;;23.67;64.11
12759;BME280;20944;47.048;15.390;2022-07-06T06:33:05;97834.31;;;23.68;62.06
12759;BME280;20944;47.048;15.390;2022-07-06T06:35:34;97823.78;;;23.43;62.57
12759;BME280;20944;47.048;15.390;2022-07-06T06:38:04;97836.09;;;23.46;64.22
12759;BME280;20944;47.048;15.390;2022-07-06T06:40:33;97834.84;;;23.50;65.04
12759;BME280;20944;47.048;15.390;2022-07-06T06:43:01;97827.13;;;23.58;65.75
12759;BME280;20944;47.048;15.390;2022-07-06T06:45:29;97831.28;;;23.73;63.71
12759;BME280;20944;47.048;15.390;2022-07-06T06:47:58;97823.78;;;23.89;61.51
12759;BME280;20944;47.048;15.390;2022-07-06T06:50:27;97825.97;;;23.95;62.29
12759;BME280;20944;47.048;15.390;2022-07-06T06:52:55;97786.06;;;23.70;60.94
12759;BME280;20944;47.048;15.390;2022-07-06T06:55:25;97816.81;;;23.87;61.05
12759;BME280;20944;47.048;15.390;2022-07-06T06:57:53;97812.44;;;23.75;61.65
12759;BME280;20944;47.048;15.390;2022-07-06T07:00:22;97822.66;;;23.81;62.14
12759;BME280;20944;47.048;15.390;2022-07-06T07:02:50;97823.13;;;23.75;63.70
12759;BME280;20944;47.048;15.390;2022-07-06T07:05:19;97823.41;;;23.72;63.29
12759;BME280;20944;47.048;15.390;2022-07-06T07:07:47;97817.53;;;23.66;61.68
12759;BME280;20944;47.048;15.390;2022-07-06T07:10:15;97814.63;;;23.69;64.07
12759;BME280;20944;47.048;15.390;2022-07-06T07:12:46;97820.59;;;23.84;62.66
12759;BME280;20944;47.048;15.390;2022-07-06T07:15:15;97815.00;;;23.99;61.86
12759;BME280;20944;47.048;15.390;2022-07-06T07:17:44;97823.06;;;24.21;60.74
12759;BME280;20944;47.048;15.390;2022-07-06T07:20:12;97819.50;;;24.43;61.88
12759;BME280;20944;47.048;15.390;2022-07-06T07:22:41;97826.31;;;24.58;60.81
12759;BME280;20944;47.048;15.390;2022-07-06T07:25:09;97809.00;;;24.51;62.46
12759;BME280;20944;47.048;15.390;2022-07-06T07:27:37;97794.25;;;24.57;63.71
12759;BME280;20944;47.048;15.390;2022-07-06T07:30:08;97789.97;;;24.77;61.23
12759;BME280;20944;47.048;15.390;2022-07-06T07:32:36;97809.09;;;25.04;59.89
12759;BME280;20944;47.048;15.390;2022-07-06T07:35:07;97808.44;;;25.23;57.25
12759;BME280;20944;47.048;15.390;2022-07-06T07:37:36;97818.00;;;25.37;57.00
12759;BME280;20944;47.048;15.390;2022-07-06T07:40:05;97807.41;;;25.35;58.00
12759;BME280;20944;47.048;15.390;2022-07-06T07:42:34;97809.44;;;25.43;56.79
12759;BME280;20944;47.048;15.390;2022-07-06T07:45:02;97812.81;;;25.45;56.18
12759;BME280;20944;47.048;15.390;2022-07-06T07:47:32;97796.19;;;25.51;58.54
12759;BME280;20944;47.048;15.390;2022-07-06T07:50:00;97804.78;;;25.66;56.63
12759;BME280;20944;47.048;15.390;2022-07-06T07:52:29;97794.44;;;25.61;56.04
12759;BME280;20944;47.048;15.390;2022-07-06T07:54:57;97808.88;;;25.70;53.30
12759;BME280;20944;47.048;15.390;2022-07-06T07:57:45;97773.56;;;25.44;51.07
12759;BME280;20944;47.048;15.390;2022-07-06T08:00:14;97807.66;;;25.53;50.54
12759;BME280;20944;47.048;15.390;2022-07-06T08:02:43;97791.47;;;25.64;50.73
12759;BME280;20944;47.048;15.390;2022-07-06T08:05:12;97804.09;;;25.94;50.83
12759;BME280;20944;47.048;15.390;2022-07-06T08:07:42;97804.16;;;26.04;46.59
12759;BME280;20944;47.048;15.390;2022-07-06T08:10:11;97808.00;;;26.21;49.79
12759;BME280;20944;47.048;15.390;2022-07-06T08:12:39;97799.59;;;26.35;45.62
12759;BME280;20944;47.048;15.390;2022-07-06T08:15:11;97728.31;;;25.91;46.18
12759;BME280;20944;47.048;15.390;2022-07-06T08:17:40;97786.69;;;26.29;48.09
12759;BME280;20944;47.048;15.390;2022-07-06T08:20:11;97789.06;;;26.53;47.05
12759;BME280;20944;47.048;15.390;2022-07-06T08:22:41;97800.13;;;26.69;43.98
12759;BME280;20944;47.048;15.390;2022-07-06T08:25:09;97801.69;;;26.72;46.32
12759;BME280;20944;47.048;15.390;2022-07-06T08:27:38;97794.31;;;26.83;45.89
12759;BME280;20944;47.048;15.390;2022-07-06T08:30:09;97767.84;;;26.88;40.92
12759;BME280;20944;47.048;15.390;2022-07-06T08:32:38;97783.16;;;26.98;38.58
12759;BME280;20944;47.048;15.390;2022-07-06T08:35:29;97796.03;;;27.04;39.00
12759;BME280;20944;47.048;15.390;2022-07-06T08:37:58;97797.34;;;27.09;38.39
12759;BME280;20944;47.048;15.390;2022-07-06T08:40:32;97801.31;;;27.05;36.49
12759;BME280;20944;47.048;15.390;2022-07-06T08:43:02;97797.00;;;27.03;35.54
12759;BME280;20944;47.048;15.390;2022-07-06T08:45:33;97799.84;;;27.01;36.53
12759;BME280;20944;47.048;15.390;2022-07-06T08:48:05;97791.78;;;27.01;35.71
12759;BME280;20944;47.048;15.390;2022-07-06T08:50:36;97787.72;;;27.17;35.89
12759;BME280;20944;47.048;15.390;2022-07-06T08:53:07;97800.19;;;27.18;35.88
12759;BME280;20944;47.048;15.390;2022-07-06T08:55:35;97791.69;;;27.22;35.99
12759;BME280;20944;47.048;15.390;2022-07-06T08:58:04;97793.94;;;27.27;33.64
12759;BME280;20944;47.048;15.390;2022-07-06T09:00:33;97774.81;;;27.20;33.82
12759;BME280;20944;47.048;15.390;2022-07-06T09:03:02;97805.38;;;27.38;34.43
12759;BME280;20944;47.048;15.390;2022-07-06T09:05:32;97793.91;;;27.46;33.45
12759;BME280;20944;47.048;15.390;2022-07-06T09:08:04;97785.69;;;27.48;33.88
12759;BME280;20944;47.048;15.390;2022-07-06T09:10:32;97759.25;;;27.24;33.70
12759;BME280;20944;47.048;15.390;2022-07-06T09:13:04;97792.81;;;27.29;33.95
12759;BME280;20944;47.048;15.390;2022-07-06T09:15:33;97784.31;;;27.24;33.94
12759;BME280;20944;47.048;15.390;2022-07-06T09:18:03;97792.81;;;27.10;35.02
12759;BME280;20944;47.048;15.390;2022-07-06T09:20:32;97734.16;;;26.65;34.21
12759;BME280;20944;47.048;15.390;2022-07-06T09:23:04;97785.41;;;27.02;35.02
12759;BME280;20944;47.048;15.390;2022-07-06T09:25:42;97799.34;;;27.17;37.17
12759;BME280;20944;47.048;15.390;2022-07-06T09:28:10;97782.88;;;27.20;35.58
12759;BME280;20944;47.048;15.390;2022-07-06T09:30:38;97783.44;;;27.33;34.59
12759;BME280;20944;47.048;15.390;2022-07-06T09:33:08;97785.44;;;27.41;34.01
12759;BME280;20944;47.048;15.390;2022-07-06T09:35:38;97779.16;;;27.50;36.70
12759;BME280;20944;47.048;15.390;2022-07-06T09:38:10;97825.06;;;27.58;32.41
12759;BME280;20944;47.048;15.390;2022-07-06T09:40:40;97698.66;;;26.91;31.67
12759;BME280;20944;47.048;15.390;2022-07-06T09:43:10;97770.72;;;27.16;31.88
12759;BME280;20944;47.048;15.390;2022-07-06T09:45:40;97761.50;;;27.09;32.05
12759;BME280;20944;47.048;15.390;2022-07-06T09:48:09;97782.75;;;27.41;32.59
12759;BME280;20944;47.048;15.390;2022-07-06T09:50:39;97670.91;;;26.61;31.90
12759;BME280;20944;47.048;15.390;2022-07-06T09:53:08;97789.09;;;27.50;33.74
12759;BME280;20944;47.048;15.390;2022-07-06T09:55:37;97717.47;;;27.10;32.71
12759;BME280;20944;47.048;15.390;2022-07-06T09:58:06;97793.72;;;27.67;33.39
12759;BME280;20944;47.048;15.390;2022-07-06T10:00:34;97798.69;;;27.72;30.73
12759;BME280;20944;47.048;15.390;2022-07-06T10:03:03;97805.81;;;27.73;31.05
12759;BME280;20944;47.048;15.390;2022-07-06T10:05:32;97796.69;;;27.64;30.78
12759;BME280;20944;47.048;15.390;2022-07-06T10:08:00;97793.34;;;27.42;28.52
12759;BME280;20944;47.048;15.390;2022-07-06T10:10:34;97787.25;;;27.50;29.81
12759;BME280;20944;47.048;15.390;2022-07-06T10:13:03;97779.75;;;27.44;30.09
12759;BME280;20944;47.048;15.390;2022-07-06T10:15:35;97771.66;;;27.54;31.84
12759;BME280;20944;47.048;15.390;2022-07-06T10:18:06;97792.19;;;27.74;31.62
12759;BME280;20944;47.048;15.390;2022-07-06T10:20:37;97797.69;;;27.82;30.97
12759;BME280;20944;47.048;15.390;2022-07-06T10:23:07;97770.31;;;27.77;32.08
12759;BME280;20944;47.048;15.390;2022-07-06T10:25:37;97786.41;;;27.96;33.17
12759;BME280;20944;47.048;15.390;2022-07-06T10:28:07;97740.84;;;27.76;30.63
12759;BME280;20944;47.048;15.390;2022-07-06T10:30:43;97785.53;;;28.06;32.67
12759;BME280;20944;47.048;15.390;2022-07-06T10:33:14;97736.72;;;27.81;33.26
12759;BME280;20944;47.048;15.390;2022-07-06T10:35:43;97779.75;;;28.28;30.92
12759;BME280;20944;47.048;15.390;2022-07-06T10:38:13;97773.81;;;28.25;31.18
12759;BME280;20944;47.048;15.390;2022-07-06T10:40:42;97749.59;;;28.15;31.87
12759;BME280;20944;47.048;15.390;2022-07-06T10:43:32;97767.84;;;28.31;32.82
12759;BME280;20944;47.048;15.390;2022-07-06T10:46:08;97783.72;;;28.34;29.95
12759;BME280;20944;47.048;15.390;2022-07-06T10:48:38;97772.25;;;28.22;30.90
12759;BME280;20944;47.048;15.390;2022-07-06T10:51:08;97734.84;;;27.91;31.10
12759;BME280;20944;47.048;15.390;2022-07-06T10:53:37;97770.97;;;28.26;30.06
12759;BME280;20944;47.048;15.390;2022-07-06T10:56:09;97777.94;;;28.29;30.27
12759;BME280;20944;47.048;15.390;2022-07-06T10:58:46;97711.28;;;27.93;30.03
12759;BME280;20944;47.048;15.390;2022-07-06T11:01:18;97773.50;;;28.28;29.63
12759;BME280;20944;47.048;15.390;2022-07-06T11:03:48;97767.28;;;28.00;29.11
12759;BME280;20944;47.048;15.390;2022-07-06T11:06:19;97740.34;;;27.90;29.90
12759;BME280;20944;47.048;15.390;2022-07-06T11:08:53;97757.66;;;28.25;32.30
12759;BME280;20944;47.048;15.390;2022-07-06T11:11:24;97632.16;;;27.67;28.12
12759;BME280;20944;47.048;15.390;2022-07-06T11:13:56;97755.88;;;28.43;30.12
12759;BME280;20944;47.048;15.390;2022-07-06T11:16:27;97657.41;;;27.93;30.95
12759;BME280;20944;47.048;15.390;2022-07-06T11:19:01;97753.03;;;28.62;30.81
12759;BME280;20944;47.048;15.390;2022-07-06T11:21:35;97747.94;;;28.77;32.53
12759;BME280;20944;47.048;15.390;2022-07-06T11:24:05;97750.41;;;28.98;32.83
12759;BME280;20944;47.048;15.390;2022-07-06T11:26:36;97677.81;;;28.59;31.24
12759;BME280;20944;47.048;15.390;2022-07-06T11:29:08;97633.53;;;28.44;31.56
12759;BME280;20944;47.048;15.390;2022-07-06T11:31:38;97754.28;;;29.21;30.73
12759;BME280;20944;47.048;15.390;2022-07-06T11:34:08;97743.19;;;29.24;28.82
12759;BME280;20944;47.048;15.390;2022-07-06T11:36:37;97751.97;;;29.26;30.58
12759;BME280;20944;47.048;15.390;2022-07-06T11:39:11;97742.44;;;29.40;29.94
12759;BME280;20944;47.048;15.390;2022-07-06T11:41:41;97736.09;;;29.49;29.81
12759;BME280;20944;47.048;15.390;2022-07-06T11:44:17;97740.66;;;29.49;29.18
12759;BME280;20944;47.048;15.390;2022-07-06T11:46:46;97724.59;;;29.47;28.68
12759;BME280;20944;47.048;15.390;2022-07-06T11:49:14;97733.69;;;29.46;29.13
12759;BME280;20944;47.048;15.390;2022-07-06T11:51:44;97731.84;;;29.47;28.68
12759;BME280;20944;47.048;15.390;2022-07-06T11:54:14;97739.81;;;29.48;29.17
12759;BME280;20944;47.048;15.390;2022-07-06T11:56:48;97690.69;;;29.27;28.50
12759;BME280;20944;47.048;15.390;2022-07-06T11:59:21;97716.91;;;29.52;29.05
12759;BME280;20944;47.048;15.390;2022-07-06T12:01:57;97709.41;;;29.46;29.11
12759;BME280;20944;47.048;15.390;2022-07-06T12:04:26;97724.09;;;29.70;29.19
12759;BME280;20944;47.048;15.390;2022-07-06T12:06:54;97731.84;;;29.99;28.68
12759;BME280;20944;47.048;15.390;2022-07-06T12:09:23;97726.44;;;29.99;28.03
12759;BME280;20944;47.048;15.390;2022-07-06T12:11:52;97725.28;;;30.09;27.94
12759;BME280;20944;47.048;15.390;2022-07-06T12:14:21;97638.81;;;29.67;27.42
12759;BME280;20944;47.048;15.390;2022-07-06T12:16:50;97699.47;;;30.15;27.48
12759;BME280;20944;47.048;15.390;2022-07-06T12:19:21;97716.28;;;30.35;26.44
12759;BME280;20944;47.048;15.390;2022-07-06T12:21:51;97714.94;;;30.39;26.47
12759;BME280;20944;47.048;15.390;2022-07-06T12:24:20;97710.47;;;30.14;27.05
12759;BME280;20944;47.048;15.390;2022-07-06T12:26:49;97705.56;;;29.75;26.81
12759;BME280;20944;47.048;15.390;2022-07-06T12:29:21;97707.31;;;29.40;26.78
12759;BME280;20944;47.048;15.390;2022-07-06T12:31:50;97715.16;;;29.25;27.15
12759;BME280;20944;47.048;15.390;2022-07-06T12:34:20;97719.19;;;29.21;27.41
12759;BME280;20944;47.048;15.390;2022-07-06T12:36:50;97716.59;;;29.12;27.06
12759;BME280;20944;47.048;15.390;2022-07-06T12:39:20;97708.72;;;29.18;26.97
12759;BME280;20944;47.048;15.390;2022-07-06T12:41:50;97634.56;;;28.87;27.53
12759;BME280;20944;47.048;15.390;2022-07-06T12:44:21;97708.81;;;29.35;26.44
12759;BME280;20944;47.048;15.390;2022-07-06T12:46:51;97705.69;;;29.21;27.10
12759;BME280;20944;47.048;15.390;2022-07-06T12:49:20;97699.84;;;29.34;26.63
12759;BME280;20944;47.048;15.390;2022-07-06T12:51:58;97684.78;;;29.49;28.58
12759;BME280;20944;47.048;15.390;2022-07-06T12:54:29;97690.00;;;29.77;27.73
12759;BME280;20944;47.048;15.390;2022-07-06T12:56:59;97701.69;;;30.12;28.09
12759;BME280;20944;47.048;15.390;2022-07-06T12:59:30;97698.53;;;30.41;28.86
12759;BME280;20944;47.048;15.390;2022-07-06T13:01:59;97696.53;;;30.51;25.75